Terminal Aerodrome Forecast
Issued by NWS

Home | Current Version | Previous Version | Text Only | Print | Product List | Glossary On
Versions: 1 2 3 4 5 6 7 8 9 10 11 12 13 14 15
000
FTUS45 KABQ 010500
TAFGUP
TAF
KGUP 010526Z 0106/0206 18010KT P6SM BKN100
     FM011900 27015G25KT P6SM VCTS BKN060CB
     FM012200 30010KT P6SM VCSH OVC060
     FM020200 21010KT P6SM SCT025 OVC040=

USA.gov is the U.S. government's official web portal to all federal, state and local government web resources and services.